Time;durP1;ratioP1;P1;durP2;ratioP2;P2;SDS_P1;SDS_P2;PMS_P1;PMS_P2;Temp;Humidity;BMP_temperature;BMP_pressure;BME280_temperature;BME280_humidity;BME280_pressure;Samples;Min_cycle;Max_cycle;Signal;HPM_P1;HPM_P2
2023/07/07 00:01:22;;;;;;;4.80;4.40;;;;;;;;;;5038255;28;20225;-85
2023/07/07 00:03:50;;;;;;;4.85;4.22;;;;;;;;;;4994968;28;21176;-86
2023/07/07 00:06:15;;;;;;;4.73;4.33;;;;;;;;;;5006248;28;20812;-85
2023/07/07 00:08:41;;;;;;;5.20;4.43;;;;;;;;;;4998021;28;20236;-87
2023/07/07 00:11:06;;;;;;;5.00;4.60;;;;;;;;;;4974805;28;20267;-85
2023/07/07 00:13:32;;;;;;;4.20;3.80;;;;;;;;;;5013916;28;20271;-85
2023/07/07 00:16:01;;;;;;;5.23;4.67;;;;;;;;;;4997790;28;20217;-85
2023/07/07 00:18:26;;;;;;;5.00;4.50;;;;;;;;;;4994548;28;20360;-85
2023/07/07 00:20:56;;;;;;;4.63;4.23;;;;;;;;;;5012118;28;20225;-86
2023/07/07 00:23:21;;;;;;;4.90;4.37;;;;;;;;;;4988556;28;20229;-84
2023/07/07 00:26:06;;;;;;;6.07;4.47;;;;;;;;;;5005475;28;20272;-86
2023/07/07 00:28:32;;;;;;;5.77;4.50;;;;;;;;;;4990993;28;20759;-86
2023/07/07 00:30:58;;;;;;;4.63;4.10;;;;;;;;;;5029821;28;20280;-86
2023/07/07 00:33:26;;;;;;;6.13;5.00;;;;;;;;;;5030563;28;20589;-85
2023/07/07 00:35:56;;;;;;;5.77;4.80;;;;;;;;;;5013070;28;20216;-86
2023/07/07 00:38:25;;;;;;;4.80;4.40;;;;;;;;;;5007349;28;20231;-85
2023/07/07 00:40:52;;;;;;;6.30;4.57;;;;;;;;;;5015251;28;20249;-87
2023/07/07 00:43:20;;;;;;;5.77;4.70;;;;;;;;;;4999412;28;20599;-85
2023/07/07 00:45:48;;;;;;;4.90;4.50;;;;;;;;;;4999615;28;20216;-85
2023/07/07 00:48:24;;;;;;;4.90;4.50;;;;;;;;;;5018394;28;20304;-86
2023/07/07 00:50:54;;;;;;;4.53;4.23;;;;;;;;;;5004883;28;20213;-85
2023/07/07 00:53:20;;;;;;;4.63;4.20;;;;;;;;;;5008832;28;20221;-86
2023/07/07 00:55:51;;;;;;;5.00;4.50;;;;;;;;;;5016929;28;20224;-85
2023/07/07 00:58:21;;;;;;;4.53;4.17;;;;;;;;;;5027153;28;20224;-86
2023/07/07 01:00:57;;;;;;;5.10;4.60;;;;;;;;;;5003197;28;20212;-86
2023/07/07 01:03:37;;;;;;;6.33;4.57;;;;;;;;;;5028726;28;20231;-88
2023/07/07 01:06:06;;;;;;;4.47;4.10;;;;;;;;;;5020585;28;20240;-86
2023/07/07 01:08:33;;;;;;;4.87;4.47;;;;;;;;;;5016323;28;20220;-87
2023/07/07 01:10:58;;;;;;;4.97;4.53;;;;;;;;;;4994285;28;20217;-89
2023/07/07 01:13:25;;;;;;;4.70;4.30;;;;;;;;;;4996719;28;20249;-88
2023/07/07 01:16:02;;;;;;;5.10;4.63;;;;;;;;;;4976648;28;20352;-87
2023/07/07 01:18:46;;;;;;;5.07;4.43;;;;;;;;;;5017962;28;20231;-87
2023/07/07 01:21:34;;;;;;;6.07;4.77;;;;;;;;;;5016451;28;20228;-85
2023/07/07 01:24:34;;;;;;;4.30;3.90;;;;;;;;;;5017238;28;20218;-87
2023/07/07 01:27:16;;;;;;;4.83;4.43;;;;;;;;;;5022071;28;20697;-87
2023/07/07 01:30:02;;;;;;;4.43;4.13;;;;;;;;;;5004082;28;20248;-86
2023/07/07 01:32:35;;;;;;;4.60;4.20;;;;;;;;;;5033957;28;20645;-88
2023/07/07 01:35:05;;;;;;;5.13;4.50;;;;;;;;;;5016275;28;20216;-89
2023/07/07 01:37:33;;;;;;;4.90;4.50;;;;;;;;;;5001896;28;20220;-85
2023/07/07 01:40:03;;;;;;;4.90;4.50;;;;;;;;;;4995530;28;20628;-85
2023/07/07 01:42:37;;;;;;;4.97;4.57;;;;;;;;;;5002334;28;20225;-85
2023/07/07 01:45:25;;;;;;;5.60;4.80;;;;;;;;;;5001803;28;20224;-86
2023/07/07 01:47:58;;;;;;;4.80;4.43;;;;;;;;;;5013340;28;20282;-84
2023/07/07 01:50:28;;;;;;;4.83;4.43;;;;;;;;;;4982013;28;20232;-85
2023/07/07 01:53:01;;;;;;;5.17;4.67;;;;;;;;;;4992982;28;20220;-86
2023/07/07 01:55:38;;;;;;;6.83;5.97;;;;;;;;;;5020838;28;20251;-86
2023/07/07 01:58:05;;;;;;;6.40;4.90;;;;;;;;;;5003027;28;20215;-86
2023/07/07 02:00:31;;;;;;;5.13;4.73;;;;;;;;;;4981928;28;20221;-88
2023/07/07 02:02:59;;;;;;;5.30;4.80;;;;;;;;;;4978637;28;20236;-85
2023/07/07 02:05:26;;;;;;;5.17;4.77;;;;;;;;;;4996733;28;20221;-87
2023/07/07 02:07:54;;;;;;;5.53;5.00;;;;;;;;;;4983447;28;20215;-85
2023/07/07 02:10:20;;;;;;;5.73;5.20;;;;;;;;;;4998468;28;20259;-85
2023/07/07 02:12:48;;;;;;;5.60;5.10;;;;;;;;;;4983471;28;20234;-85
2023/07/07 02:15:15;;;;;;;8.43;4.97;;;;;;;;;;4997809;28;20330;-86
2023/07/07 02:17:41;;;;;;;5.07;4.67;;;;;;;;;;5000219;28;20212;-83
2023/07/07 02:20:11;;;;;;;5.27;4.80;;;;;;;;;;4982138;28;20239;-84
2023/07/07 02:22:41;;;;;;;5.03;4.63;;;;;;;;;;4998838;28;20785;-86
2023/07/07 02:25:10;;;;;;;5.73;5.17;;;;;;;;;;5027670;28;20224;-85
2023/07/07 02:27:37;;;;;;;5.40;4.93;;;;;;;;;;5014787;28;20303;-87
2023/07/07 02:30:06;;;;;;;6.10;5.50;;;;;;;;;;5024248;28;20628;-86
2023/07/07 02:32:38;;;;;;;5.57;5.17;;;;;;;;;;4995285;28;20221;-86
2023/07/07 02:35:08;;;;;;;5.10;4.60;;;;;;;;;;4993768;28;20315;-87
2023/07/07 02:37:33;;;;;;;5.80;5.20;;;;;;;;;;5010775;28;20258;-86
2023/07/07 02:40:00;;;;;;;5.27;4.83;;;;;;;;;;5012139;28;20216;-86
2023/07/07 02:42:27;;;;;;;5.23;4.73;;;;;;;;;;4984570;28;20260;-86
2023/07/07 02:44:53;;;;;;;5.20;4.70;;;;;;;;;;4988707;28;20229;-86
2023/07/07 02:47:19;;;;;;;5.47;4.60;;;;;;;;;;4958442;28;20276;-87
2023/07/07 02:49:45;;;;;;;5.10;4.70;;;;;;;;;;4988441;28;20225;-87
2023/07/07 02:52:13;;;;;;;5.23;4.80;;;;;;;;;;4975904;28;20697;-87
2023/07/07 02:54:41;;;;;;;5.37;4.97;;;;;;;;;;4988610;28;20252;-88
2023/07/07 02:57:07;;;;;;;5.33;4.83;;;;;;;;;;5013678;28;20232;-87
2023/07/07 02:59:33;;;;;;;6.07;5.17;;;;;;;;;;4989998;28;20221;-87
2023/07/07 03:01:58;;;;;;;6.13;5.30;;;;;;;;;;4977097;28;20303;-86
2023/07/07 03:04:28;;;;;;;5.10;4.70;;;;;;;;;;5011264;28;20267;-91
2023/07/07 03:06:56;;;;;;;5.50;5.10;;;;;;;;;;5045706;28;20534;-90
2023/07/07 03:09:24;;;;;;;5.40;4.53;;;;;;;;;;5015484;28;20240;-90
2023/07/07 03:11:56;;;;;;;5.27;4.80;;;;;;;;;;4985173;28;20214;-89
2023/07/07 03:14:25;;;;;;;4.40;4.10;;;;;;;;;;5016765;28;20233;-87
2023/07/07 03:16:51;;;;;;;4.97;4.57;;;;;;;;;;4988967;28;20212;-88
2023/07/07 03:19:23;;;;;;;5.23;4.33;;;;;;;;;;5001128;28;20255;-88
2023/07/07 03:22:05;;;;;;;5.43;4.93;;;;;;;;;;4991682;28;20216;-88
2023/07/07 03:24:37;;;;;;;5.13;4.60;;;;;;;;;;5009470;28;20727;-87
2023/07/07 03:27:13;;;;;;;5.00;4.43;;;;;;;;;;4992352;28;20218;-86
2023/07/07 03:29:41;;;;;;;5.00;4.60;;;;;;;;;;5030842;28;20229;-87
2023/07/07 03:32:07;;;;;;;6.27;4.90;;;;;;;;;;5019307;28;20215;-89
2023/07/07 03:34:36;;;;;;;5.70;5.20;;;;;;;;;;5014593;28;20228;-85
2023/07/07 03:37:06;;;;;;;5.30;4.90;;;;;;;;;;5026081;28;20232;-89
2023/07/07 03:39:32;;;;;;;7.73;5.30;;;;;;;;;;5041800;28;20240;-86
2023/07/07 03:41:59;;;;;;;5.40;4.90;;;;;;;;;;4998950;28;20205;-86
2023/07/07 03:44:25;;;;;;;5.77;4.97;;;;;;;;;;4999185;28;20222;-89
2023/07/07 03:46:54;;;;;;;6.43;5.83;;;;;;;;;;5011108;28;20759;-88
2023/07/07 03:49:22;;;;;;;5.07;4.67;;;;;;;;;;5057565;28;20235;-89
2023/07/07 03:51:48;;;;;;;5.40;4.90;;;;;;;;;;5018763;28;20212;-88
2023/07/07 03:54:13;;;;;;;5.77;4.40;;;;;;;;;;5032136;28;20230;-87
2023/07/07 03:56:41;;;;;;;5.30;4.83;;;;;;;;;;5029535;28;20248;-88
2023/07/07 03:59:07;;;;;;;5.53;5.03;;;;;;;;;;5024417;28;20220;-89
2023/07/07 04:01:32;;;;;;;6.60;5.40;;;;;;;;;;5012433;28;20231;-87
2023/07/07 04:03:58;;;;;;;5.77;5.27;;;;;;;;;;5010507;28;20243;-86
2023/07/07 04:06:26;;;;;;;5.27;4.87;;;;;;;;;;5009960;28;20217;-87
2023/07/07 04:08:51;;;;;;;5.60;5.10;;;;;;;;;;5021952;28;20725;-88
2023/07/07 04:11:19;;;;;;;6.20;5.60;;;;;;;;;;5016983;28;20256;-86
2023/07/07 04:13:45;;;;;;;5.10;4.70;;;;;;;;;;5007623;28;20209;-87
2023/07/07 04:16:52;;;;;;;6.23;5.40;;;;;;;;;;5022256;28;20280;-86
2023/07/07 04:19:26;;;;;;;5.93;5.43;;;;;;;;;;5016194;28;20700;-88
2023/07/07 04:21:58;;;;;;;6.70;6.00;;;;;;;;;;5001911;28;20217;-86
2023/07/07 04:28:31;;;;;;;5.67;5.17;;;;;;;;;;5016175;28;20233;-87
2023/07/07 04:31:00;;;;;;;5.40;5.00;;;;;;;;;;5017592;28;20218;-86
2023/07/07 04:33:27;;;;;;;5.60;5.20;;;;;;;;;;5002718;28;20674;-88
2023/07/07 04:38:59;;;;;;;5.90;5.30;;;;;;;;;;4985002;28;20259;-86
2023/07/07 04:41:26;;;;;;;5.87;5.40;;;;;;;;;;4967315;28;20659;-86
2023/07/07 04:44:11;;;;;;;6.03;5.63;;;;;;;;;;4998947;28;20279;-85
2023/07/07 04:46:38;;;;;;;6.43;5.83;;;;;;;;;;4991364;28;20264;-86
2023/07/07 04:49:38;;;;;;;6.20;5.60;;;;;;;;;;4981767;28;20225;-86
2023/07/07 04:52:27;;;;;;;5.60;5.10;;;;;;;;;;5009236;28;20263;-89
2023/07/07 04:56:02;;;;;;;6.63;5.43;;;;;;;;;;5010337;28;20248;-87
2023/07/07 04:58:56;;;;;;;5.23;4.83;;;;;;;;;;5028447;28;20228;-85
2023/07/07 05:02:22;;;;;;;6.10;5.27;;;;;;;;;;5017317;28;20282;-85
2023/07/07 05:05:22;;;;;;;6.13;5.50;;;;;;;;;;5024850;28;20225;-87
2023/07/07 05:07:59;;;;;;;8.20;7.00;;;;;;;;;;5059927;28;20218;-87
2023/07/07 05:10:27;;;;;;;5.57;4.90;;;;;;;;;;5025215;28;20225;-86
2023/07/07 05:13:05;;;;;;;5.50;4.90;;;;;;;;;;5013682;28;20220;-87
2023/07/07 05:16:17;;;;;;;5.53;5.03;;;;;;;;;;5022588;28;20220;-87
2023/07/07 05:18:49;;;;;;;5.25;4.57;;;;;;;;;;5012200;28;20300;-86
2023/07/07 05:21:24;;;;;;;5.23;4.73;;;;;;;;;;5004742;28;20217;-87
2023/07/07 05:23:55;;;;;;;4.90;4.50;;;;;;;;;;5026593;28;20271;-87
2023/07/07 05:29:38;;;;;;;7.10;4.30;;;;;;;;;;5017216;28;20229;-86
2023/07/07 05:32:13;;;;;;;5.35;4.50;;;;;;;;;;4982115;28;20212;-87
2023/07/07 05:35:00;;;;;;;6.18;4.40;;;;;;;;;;4992403;28;20224;-88
2023/07/07 05:37:31;;;;;;;5.70;4.45;;;;;;;;;;5039792;28;20220;-87
2023/07/07 05:40:09;;;;;;;5.03;4.22;;;;;;;;;;4998326;28;20223;-86
2023/07/07 05:42:35;;;;;;;5.15;4.65;;;;;;;;;;5014420;28;20223;-90
2023/07/07 05:45:22;;;;;;;4.45;3.90;;;;;;;;;;4974852;28;20278;-86
2023/07/07 05:48:08;;;;;;;4.18;3.80;;;;;;;;;;5029427;28;21029;-87
2023/07/07 05:54:21;;;;;;;5.15;4.03;;;;;;;;;;5024529;28;20231;-88
2023/07/07 05:57:20;;;;;;;6.72;4.00;;;;;;;;;;5014862;28;20224;-88
2023/07/07 05:59:46;;;;;;;4.13;3.83;;;;;;;;;;5033388;28;20209;-88
2023/07/07 06:02:43;;;;;;;5.05;3.70;;;;;;;;;;5038995;28;20217;-86
2023/07/07 06:12:47;;;;;;;4.28;3.35;;;;;;;;;;5067343;28;20228;-87
2023/07/07 06:15:15;;;;;;;3.47;3.17;;;;;;;;;;5016318;28;20226;-87
2023/07/07 06:17:44;;;;;;;3.35;3.05;;;;;;;;;;5064790;28;20226;-86
2023/07/07 06:20:15;;;;;;;3.78;3.10;;;;;;;;;;5070438;28;20608;-86
2023/07/07 06:22:43;;;;;;;3.13;2.83;;;;;;;;;;5048807;28;20238;-86
2023/07/07 06:25:09;;;;;;;3.30;3.00;;;;;;;;;;5056579;28;20221;-86
2023/07/07 06:27:39;;;;;;;3.72;3.22;;;;;;;;;;5033422;28;20233;-86
2023/07/07 06:30:07;;;;;;;3.58;3.28;;;;;;;;;;5052586;28;20241;-85
2023/07/07 06:32:37;;;;;;;3.53;3.17;;;;;;;;;;5040013;28;20270;-85
2023/07/07 06:35:04;;;;;;;2.95;2.75;;;;;;;;;;5061138;28;20228;-84
2023/07/07 06:37:30;;;;;;;2.88;2.67;;;;;;;;;;5066686;28;20237;-85
2023/07/07 06:39:55;;;;;;;3.42;2.97;;;;;;;;;;5068113;28;20218;-86
2023/07/07 06:42:21;;;;;;;3.65;2.83;;;;;;;;;;5057708;28;20222;-84
2023/07/07 06:44:58;;;;;;;3.17;2.88;;;;;;;;;;5055194;28;20224;-85
2023/07/07 06:47:23;;;;;;;3.65;2.55;;;;;;;;;;5054562;28;20268;-85
2023/07/07 06:49:51;;;;;;;4.03;2.97;;;;;;;;;;5032660;28;20289;-85
2023/07/07 06:52:20;;;;;;;6.18;2.75;;;;;;;;;;5060296;28;20229;-84
2023/07/07 06:54:47;;;;;;;4.70;2.95;;;;;;;;;;5080878;28;20233;-84
2023/07/07 06:57:16;;;;;;;3.13;2.67;;;;;;;;;;5059468;28;20226;-85
2023/07/07 06:59:42;;;;;;;5.70;2.50;;;;;;;;;;5055080;28;20250;-85
2023/07/07 07:02:12;;;;;;;2.58;2.33;;;;;;;;;;5055209;28;20264;-86
2023/07/07 07:04:40;;;;;;;2.92;2.63;;;;;;;;;;5050054;28;20241;-86
2023/07/07 07:07:08;;;;;;;3.70;2.38;;;;;;;;;;5041311;28;20219;-84
2023/07/07 07:09:38;;;;;;;2.95;2.28;;;;;;;;;;5053612;28;20629;-86
2023/07/07 07:12:04;;;;;;;3.28;2.50;;;;;;;;;;5051781;28;20226;-85
2023/07/07 07:14:30;;;;;;;4.85;2.25;;;;;;;;;;5069454;28;20244;-86
2023/07/07 07:16:55;;;;;;;3.10;2.30;;;;;;;;;;5055324;28;20210;-85
2023/07/07 07:19:21;;;;;;;3.30;2.20;;;;;;;;;;5050155;28;20213;-85
2023/07/07 07:21:46;;;;;;;5.28;2.17;;;;;;;;;;5046792;28;20218;-86
2023/07/07 07:24:12;;;;;;;2.10;1.90;;;;;;;;;;5062140;28;20218;-85
2023/07/07 07:26:40;;;;;;;3.53;2.30;;;;;;;;;;5068343;28;20584;-86
2023/07/07 07:29:08;;;;;;;2.72;2.30;;;;;;;;;;5057380;28;20218;-86
2023/07/07 07:31:35;;;;;;;2.85;2.38;;;;;;;;;;5055401;28;20229;-85
2023/07/07 07:34:22;;;;;;;4.20;2.30;;;;;;;;;;5104702;28;20198;-84
2023/07/07 07:36:49;;;;;;;2.78;2.58;;;;;;;;;;5067260;28;20206;-85
2023/07/07 07:39:19;;;;;;;4.55;2.40;;;;;;;;;;5067938;28;20207;-86
2023/07/07 07:41:49;;;;;;;4.72;2.47;;;;;;;;;;5078080;28;20211;-85
2023/07/07 07:44:17;;;;;;;2.47;2.10;;;;;;;;;;5095470;28;20581;-87
2023/07/07 07:46:48;;;;;;;2.20;2.00;;;;;;;;;;5055824;28;20220;-86
2023/07/07 07:49:17;;;;;;;2.10;1.90;;;;;;;;;;5067428;28;20323;-84
2023/07/07 07:51:43;;;;;;;2.22;2.03;;;;;;;;;;5064373;28;20229;-86
2023/07/07 07:54:09;;;;;;;2.05;1.92;;;;;;;;;;5048757;28;20291;-86
2023/07/07 07:56:38;;;;;;;2.50;2.22;;;;;;;;;;5069596;28;20262;-86
2023/07/07 07:59:04;;;;;;;2.80;1.90;;;;;;;;;;5075239;28;20216;-86
2023/07/07 08:01:29;;;;;;;4.55;1.92;;;;;;;;;;5046380;28;20225;-85
2023/07/07 08:03:55;;;;;;;2.55;1.90;;;;;;;;;;5050634;28;20242;-86
2023/07/07 08:06:20;;;;;;;2.20;2.00;;;;;;;;;;5065485;28;20235;-86
2023/07/07 08:08:46;;;;;;;3.20;1.80;;;;;;;;;;5045115;28;20215;-81
2023/07/07 08:11:13;;;;;;;1.88;1.75;;;;;;;;;;5050583;28;20222;-85
2023/07/07 08:13:39;;;;;;;1.70;1.60;;;;;;;;;;5056354;28;21590;-84
2023/07/07 08:16:09;;;;;;;2.17;1.63;;;;;;;;;;5063154;28;20223;-85
2023/07/07 08:18:35;;;;;;;2.20;1.70;;;;;;;;;;5065596;28;20225;-86
2023/07/07 08:21:00;;;;;;;2.28;1.70;;;;;;;;;;5039308;28;20207;-84
2023/07/07 08:23:31;;;;;;;2.47;2.00;;;;;;;;;;5086682;28;20230;-84
2023/07/07 08:25:57;;;;;;;1.75;1.60;;;;;;;;;;5044712;28;20361;-87
2023/07/07 08:28:23;;;;;;;2.33;1.65;;;;;;;;;;5046043;28;20231;-88
2023/07/07 08:30:50;;;;;;;2.95;1.65;;;;;;;;;;5077162;28;20242;-85
2023/07/07 08:33:16;;;;;;;1.50;1.40;;;;;;;;;;5037079;28;20214;-83
2023/07/07 08:35:42;;;;;;;1.70;1.40;;;;;;;;;;5054463;28;20254;-85
2023/07/07 08:38:07;;;;;;;1.90;1.45;;;;;;;;;;5057393;28;20230;-88
2023/07/07 08:40:47;;;;;;;3.03;1.60;;;;;;;;;;5052241;28;20218;-84
2023/07/07 08:43:15;;;;;;;2.08;1.65;;;;;;;;;;5031504;28;20224;-86
2023/07/07 08:45:43;;;;;;;2.13;1.52;;;;;;;;;;5056747;28;20284;-85
2023/07/07 08:48:23;;;;;;;1.73;1.30;;;;;;;;;;5063033;28;20223;-85
2023/07/07 08:50:56;;;;;;;1.75;1.65;;;;;;;;;;5051317;28;20273;-86
2023/07/07 08:53:30;;;;;;;2.33;1.58;;;;;;;;;;5061071;28;20787;-85
2023/07/07 08:56:06;;;;;;;2.40;1.63;;;;;;;;;;5082433;28;20218;-82
2023/07/07 08:58:48;;;;;;;2.00;1.40;;;;;;;;;;5087580;28;20775;-83
2023/07/07 09:01:25;;;;;;;1.90;1.50;;;;;;;;;;5054188;28;20218;-85
2023/07/07 09:04:05;;;;;;;2.25;1.40;;;;;;;;;;5071776;28;20984;-85
2023/07/07 09:06:59;;;;;;;2.10;1.50;;;;;;;;;;5071807;28;20230;-85
2023/07/07 09:09:48;;;;;;;3.15;1.50;;;;;;;;;;5069181;28;20248;-86
2023/07/07 09:12:37;;;;;;;2.03;1.60;;;;;;;;;;5088967;28;20278;-88
2023/07/07 09:15:18;;;;;;;2.08;1.30;;;;;;;;;;5041943;28;20319;-85
2023/07/07 09:17:47;;;;;;;1.55;1.45;;;;;;;;;;5080210;28;20274;-84
2023/07/07 09:20:12;;;;;;;1.40;1.30;;;;;;;;;;5033402;28;20709;-86
2023/07/07 09:22:46;;;;;;;1.60;1.50;;;;;;;;;;5065797;28;20238;-85
2023/07/07 09:25:17;;;;;;;2.33;1.67;;;;;;;;;;5080502;28;21587;-86
2023/07/07 09:27:44;;;;;;;1.83;1.70;;;;;;;;;;5065687;28;20241;-87
2023/07/07 09:30:34;;;;;;;3.40;1.77;;;;;;;;;;5059966;28;20221;-86
2023/07/07 09:33:00;;;;;;;3.00;1.80;;;;;;;;;;5066591;28;20226;-86
2023/07/07 09:35:35;;;;;;;1.67;1.58;;;;;;;;;;5052590;28;20229;-85
2023/07/07 09:38:12;;;;;;;2.67;1.60;;;;;;;;;;5030747;28;20219;-87
2023/07/07 09:40:55;;;;;;;2.60;1.75;;;;;;;;;;5074837;28;20507;-86
2023/07/07 09:43:59;;;;;;;1.70;1.55;;;;;;;;;;5057546;28;20218;-86
2023/07/07 09:46:51;;;;;;;2.78;1.70;;;;;;;;;;5032948;28;20238;-86
2023/07/07 09:49:35;;;;;;;1.77;1.42;;;;;;;;;;5061918;28;20241;-86
2023/07/07 09:52:15;;;;;;;2.28;1.70;;;;;;;;;;5057522;28;20219;-85
2023/07/07 09:54:43;;;;;;;1.85;1.40;;;;;;;;;;5062276;28;20223;-84
2023/07/07 09:57:17;;;;;;;1.88;1.50;;;;;;;;;;5033859;28;20675;-86
2023/07/07 09:59:43;;;;;;;1.80;1.52;;;;;;;;;;5048607;28;20277;-85
2023/07/07 10:02:14;;;;;;;2.00;1.80;;;;;;;;;;5035412;28;20907;-84
2023/07/07 10:04:42;;;;;;;1.70;1.60;;;;;;;;;;5032146;28;20713;-84
2023/07/07 10:07:08;;;;;;;2.47;1.85;;;;;;;;;;5049421;28;20220;-86
2023/07/07 10:09:34;;;;;;;1.70;1.60;;;;;;;;;;5059537;28;20581;-86
2023/07/07 10:11:59;;;;;;;3.70;1.70;;;;;;;;;;5051144;28;20215;-85
2023/07/07 10:14:27;;;;;;;1.80;1.60;;;;;;;;;;5057740;28;20227;-86
2023/07/07 10:16:53;;;;;;;2.28;1.50;;;;;;;;;;5062975;28;20734;-86
2023/07/07 10:19:19;;;;;;;2.40;1.73;;;;;;;;;;5058077;28;20642;-87
2023/07/07 10:21:47;;;;;;;2.13;1.88;;;;;;;;;;5053603;28;20230;-87
2023/07/07 10:24:16;;;;;;;3.83;1.50;;;;;;;;;;5086462;28;20221;-87
2023/07/07 10:26:45;;;;;;;2.15;1.48;;;;;;;;;;5054365;28;20700;-85
2023/07/07 10:29:13;;;;;;;3.72;1.60;;;;;;;;;;5067325;28;20687;-84
2023/07/07 10:31:43;;;;;;;2.45;1.67;;;;;;;;;;5057103;28;20729;-86
2023/07/07 10:34:40;;;;;;;2.38;1.45;;;;;;;;;;5028278;28;20237;-85
2023/07/07 10:37:22;;;;;;;2.63;1.80;;;;;;;;;;5056893;28;20222;-86
2023/07/07 10:39:58;;;;;;;2.45;1.60;;;;;;;;;;5076274;28;20742;-86
2023/07/07 10:42:26;;;;;;;2.00;1.45;;;;;;;;;;5034016;28;20210;-87
2023/07/07 10:44:58;;;;;;;3.38;1.50;;;;;;;;;;5069805;28;20657;-85
2023/07/07 10:47:35;;;;;;;1.63;1.42;;;;;;;;;;5066699;28;20659;-86
2023/07/07 10:50:01;;;;;;;2.22;1.50;;;;;;;;;;5068853;28;20241;-86
2023/07/07 10:52:51;;;;;;;1.70;1.60;;;;;;;;;;5051505;28;20222;-85
2023/07/07 10:55:37;;;;;;;1.80;1.70;;;;;;;;;;5066210;28;20245;-85
2023/07/07 10:58:14;;;;;;;1.98;1.50;;;;;;;;;;5062124;28;20239;-85
2023/07/07 11:01:02;;;;;;;2.17;1.80;;;;;;;;;;5074538;28;20271;-85
2023/07/07 11:03:49;;;;;;;1.60;1.42;;;;;;;;;;5055296;28;20712;-87
2023/07/07 11:06:39;;;;;;;3.78;1.60;;;;;;;;;;5075997;28;20644;-86
2023/07/07 11:09:14;;;;;;;1.75;1.48;;;;;;;;;;5069708;28;20226;-85
2023/07/07 11:11:52;;;;;;;2.60;1.33;;;;;;;;;;5055254;28;20225;-86
2023/07/07 11:14:23;;;;;;;3.03;1.50;;;;;;;;;;5087227;28;20241;-86
2023/07/07 11:17:10;;;;;;;1.75;1.48;;;;;;;;;;5090414;28;20214;-83
2023/07/07 11:19:44;;;;;;;1.77;1.63;;;;;;;;;;5068422;28;20236;-83
2023/07/07 11:22:42;;;;;;;1.50;1.40;;;;;;;;;;5036374;28;20667;-84
2023/07/07 11:25:17;;;;;;;2.78;1.85;;;;;;;;;;5063309;28;20223;-85
2023/07/07 11:27:49;;;;;;;2.92;1.63;;;;;;;;;;5042911;28;20242;-84
2023/07/07 11:30:34;;;;;;;4.88;1.80;;;;;;;;;;5089728;28;20714;-83
2023/07/07 11:33:16;;;;;;;1.67;1.58;;;;;;;;;;5092241;28;20214;-85
2023/07/07 11:35:54;;;;;;;1.60;1.42;;;;;;;;;;5075433;28;20226;-85
2023/07/07 11:38:59;;;;;;;1.60;1.30;;;;;;;;;;5075731;28;20213;-84
2023/07/07 11:41:43;;;;;;;2.15;1.80;;;;;;;;;;5081973;28;20218;-84
2023/07/07 11:44:14;;;;;;;4.30;1.80;;;;;;;;;;5084959;28;20219;-86
2023/07/07 11:46:55;;;;;;;1.52;1.42;;;;;;;;;;5104380;28;20217;-82
2023/07/07 11:49:27;;;;;;;3.95;1.75;;;;;;;;;;5102914;28;20226;-84
2023/07/07 11:52:13;;;;;;;2.53;1.55;;;;;;;;;;5094916;28;20238;-82
2023/07/07 11:55:02;;;;;;;1.85;1.67;;;;;;;;;;5102554;28;20231;-85
2023/07/07 11:58:06;;;;;;;3.65;1.73;;;;;;;;;;5062141;28;20227;-84
2023/07/07 12:00:32;;;;;;;2.50;1.70;;;;;;;;;;5054196;28;20227;-86
2023/07/07 12:03:31;;;;;;;1.63;1.52;;;;;;;;;;5086296;28;20218;-84
2023/07/07 12:05:58;;;;;;;1.70;1.58;;;;;;;;;;5083366;28;20224;-84
2023/07/07 12:08:46;;;;;;;1.98;1.77;;;;;;;;;;5047634;28;20230;-84
2023/07/07 12:11:14;;;;;;;2.53;1.67;;;;;;;;;;5036843;28;20519;-85
2023/07/07 12:14:12;;;;;;;4.53;1.60;;;;;;;;;;5093322;28;20886;-85
2023/07/07 12:16:39;;;;;;;1.60;1.50;;;;;;;;;;5083525;28;20226;-87
2023/07/07 12:19:16;;;;;;;1.73;1.63;;;;;;;;;;5067644;28;20219;-85
2023/07/07 12:21:42;;;;;;;1.75;1.40;;;;;;;;;;5054062;28;20215;-84
2023/07/07 12:24:32;;;;;;;1.98;1.67;;;;;;;;;;5043771;28;20319;-86
2023/07/07 12:27:20;;;;;;;3.35;1.70;;;;;;;;;;5087061;28;20223;-85
2023/07/07 12:29:47;;;;;;;1.98;1.33;;;;;;;;;;5070732;28;20241;-84
2023/07/07 12:32:12;;;;;;;1.73;1.63;;;;;;;;;;5046133;28;20263;-85
2023/07/07 12:34:41;;;;;;;1.85;1.75;;;;;;;;;;5048786;28;20644;-83
2023/07/07 12:37:21;;;;;;;1.77;1.50;;;;;;;;;;5078081;28;20590;-86
2023/07/07 12:39:56;;;;;;;2.65;1.60;;;;;;;;;;5088263;28;20219;-83
2023/07/07 12:42:25;;;;;;;3.60;1.70;;;;;;;;;;5068164;28;20230;-84
2023/07/07 12:44:51;;;;;;;1.58;1.48;;;;;;;;;;5069904;28;20271;-82
2023/07/07 12:47:27;;;;;;;2.35;1.58;;;;;;;;;;5059627;28;20586;-84
2023/07/07 12:49:55;;;;;;;2.63;1.48;;;;;;;;;;5051165;28;20229;-84
2023/07/07 12:52:28;;;;;;;1.70;1.60;;;;;;;;;;5034592;28;20223;-83
2023/07/07 12:54:54;;;;;;;2.20;1.52;;;;;;;;;;5036943;28;20234;-86
2023/07/07 12:57:24;;;;;;;2.45;1.70;;;;;;;;;;5050059;28;20222;-84
2023/07/07 12:59:52;;;;;;;3.65;1.40;;;;;;;;;;5049320;28;20268;-85
2023/07/07 13:02:18;;;;;;;2.03;1.50;;;;;;;;;;5051441;28;20217;-87
2023/07/07 13:04:49;;;;;;;2.08;1.40;;;;;;;;;;5051128;28;20310;-86
2023/07/07 13:07:21;;;;;;;1.90;1.70;;;;;;;;;;5024916;28;20226;-85
2023/07/07 13:09:48;;;;;;;1.77;1.67;;;;;;;;;;5037260;28;20222;-85
2023/07/07 13:12:48;;;;;;;2.90;1.60;;;;;;;;;;5062671;28;20223;-86
2023/07/07 13:15:17;;;;;;;1.88;1.65;;;;;;;;;;5039330;28;20287;-85
2023/07/07 13:17:43;;;;;;;5.35;1.73;;;;;;;;;;5042258;28;20816;-83
2023/07/07 13:20:16;;;;;;;1.52;1.38;;;;;;;;;;5051405;28;20230;-87
2023/07/07 13:22:49;;;;;;;1.65;1.55;;;;;;;;;;5042790;28;20605;-85
2023/07/07 13:25:34;;;;;;;1.80;1.50;;;;;;;;;;5067938;28;20726;-85
2023/07/07 13:28:01;;;;;;;1.92;1.58;;;;;;;;;;5068709;28;20230;-85
2023/07/07 13:30:34;;;;;;;1.48;1.38;;;;;;;;;;5080224;28;20217;-84
2023/07/07 13:33:11;;;;;;;2.47;1.40;;;;;;;;;;5056078;28;20221;-84
2023/07/07 13:35:39;;;;;;;1.60;1.50;;;;;;;;;;5066205;28;20214;-83
2023/07/07 13:38:06;;;;;;;2.53;1.40;;;;;;;;;;5086815;28;20594;-85
2023/07/07 13:40:34;;;;;;;1.60;1.50;;;;;;;;;;5078101;28;20222;-86
2023/07/07 13:43:02;;;;;;;2.55;1.60;;;;;;;;;;5041785;28;20245;-85
2023/07/07 13:45:33;;;;;;;1.80;1.40;;;;;;;;;;5063438;28;20690;-85
2023/07/07 13:47:58;;;;;;;1.30;1.20;;;;;;;;;;5046778;28;20219;-85
2023/07/07 13:50:32;;;;;;;1.60;1.48;;;;;;;;;;5071996;28;20608;-84
2023/07/07 13:53:03;;;;;;;1.60;1.50;;;;;;;;;;5050530;28;20826;-84
2023/07/07 13:55:32;;;;;;;2.38;1.42;;;;;;;;;;5072984;28;21074;-85
2023/07/07 13:58:03;;;;;;;2.67;1.40;;;;;;;;;;5066920;28;20213;-85
2023/07/07 14:00:37;;;;;;;1.42;1.33;;;;;;;;;;5059270;28;20219;-85
2023/07/07 14:03:06;;;;;;;1.67;1.38;;;;;;;;;;5049050;28;20283;-84
2023/07/07 14:05:33;;;;;;;1.38;1.25;;;;;;;;;;5080752;28;20579;-86
2023/07/07 14:08:15;;;;;;;2.35;1.50;;;;;;;;;;5050811;28;20569;-84
2023/07/07 14:10:43;;;;;;;1.77;1.67;;;;;;;;;;5079806;28;20213;-85
2023/07/07 14:13:22;;;;;;;1.55;1.42;;;;;;;;;;5057638;28;20244;-87
2023/07/07 14:15:56;;;;;;;1.83;1.33;;;;;;;;;;5071649;28;20596;-83
2023/07/07 14:18:24;;;;;;;1.50;1.40;;;;;;;;;;5074099;28;20226;-86
2023/07/07 14:20:52;;;;;;;1.83;1.50;;;;;;;;;;5049286;28;20218;-85
2023/07/07 14:23:18;;;;;;;1.83;1.40;;;;;;;;;;5064796;28;20770;-85
2023/07/07 14:25:45;;;;;;;1.58;1.40;;;;;;;;;;5081696;28;20292;-85
2023/07/07 14:28:21;;;;;;;2.55;1.50;;;;;;;;;;5074901;28;20308;-86
2023/07/07 14:31:07;;;;;;;2.78;1.83;;;;;;;;;;5039998;28;20225;-84
2023/07/07 14:33:58;;;;;;;2.05;1.70;;;;;;;;;;5035944;28;21627;-85
2023/07/07 14:36:26;;;;;;;1.60;1.50;;;;;;;;;;5043692;28;20284;-85
2023/07/07 14:38:55;;;;;;;2.08;1.50;;;;;;;;;;5037486;28;20207;-84
2023/07/07 14:41:20;;;;;;;4.78;1.60;;;;;;;;;;5047457;28;20226;-85
2023/07/07 14:43:48;;;;;;;3.38;1.70;;;;;;;;;;5028652;28;20223;-85
2023/07/07 14:46:17;;;;;;;1.40;1.30;;;;;;;;;;5065142;28;20211;-87
2023/07/07 14:48:47;;;;;;;2.83;1.80;;;;;;;;;;5036976;28;20219;-86
2023/07/07 14:51:15;;;;;;;1.95;1.60;;;;;;;;;;5057640;28;20215;-86
2023/07/07 14:53:41;;;;;;;1.75;1.63;;;;;;;;;;5039960;28;20234;-84
2023/07/07 14:56:37;;;;;;;2.35;1.45;;;;;;;;;;5037506;28;20215;-85
2023/07/07 14:59:14;;;;;;;1.60;1.48;;;;;;;;;;5077813;28;20207;-85
2023/07/07 15:01:42;;;;;;;1.70;1.52;;;;;;;;;;5057935;28;20210;-84
2023/07/07 15:04:12;;;;;;;2.70;1.55;;;;;;;;;;5050458;28;20215;-83
2023/07/07 15:06:40;;;;;;;1.55;1.38;;;;;;;;;;5039623;28;20715;-84
2023/07/07 15:09:06;;;;;;;2.80;1.60;;;;;;;;;;5063384;28;20484;-83
2023/07/07 15:11:33;;;;;;;1.80;1.55;;;;;;;;;;5063839;28;20225;-85
2023/07/07 15:14:00;;;;;;;1.70;1.30;;;;;;;;;;5070129;28;20292;-84
2023/07/07 15:16:25;;;;;;;1.63;1.52;;;;;;;;;;5074728;28;20309;-83
2023/07/07 15:18:51;;;;;;;2.63;1.48;;;;;;;;;;5055438;28;20242;-85
2023/07/07 15:21:23;;;;;;;1.73;1.52;;;;;;;;;;5076012;28;20675;-84
2023/07/07 15:23:49;;;;;;;1.63;1.50;;;;;;;;;;5055943;28;20214;-81
2023/07/07 15:26:44;;;;;;;1.92;1.50;;;;;;;;;;5051607;28;20219;-82
2023/07/07 15:29:14;;;;;;;1.63;1.52;;;;;;;;;;5066987;28;20221;-84
2023/07/07 15:31:39;;;;;;;1.40;1.30;;;;;;;;;;5070188;28;20770;-83
2023/07/07 15:34:05;;;;;;;1.50;1.40;;;;;;;;;;5038540;28;20222;-81
2023/07/07 15:36:30;;;;;;;2.80;1.67;;;;;;;;;;5063878;28;20294;-82
2023/07/07 15:38:56;;;;;;;1.48;1.38;;;;;;;;;;5070598;28;20207;-84